createdAt,value
2017-08-17T00:00:03.286Z,91.5
2017-08-17T00:00:06.353Z,91.5
2017-08-17T00:00:09.835Z,91.5
2017-08-17T00:00:12.869Z,91.5
2017-08-17T00:00:16.231Z,91.5
2017-08-17T00:00:19.647Z,91.5
2017-08-17T00:00:23.009Z,91.5
2017-08-17T00:00:26.414Z,91.5
2017-08-17T00:00:29.441Z,91.5
2017-08-17T00:00:32.449Z,91.5
2017-08-17T00:00:35.908Z,91.6
2017-08-17T00:00:39.408Z,91.5
2017-08-17T00:00:42.869Z,91.5
2017-08-17T00:00:46.448Z,91.5
2017-08-17T00:00:49.939Z,91.6
2017-08-17T00:00:53.069Z,91.6
2017-08-17T00:00:56.435Z,91.7
2017-08-17T00:00:59.496Z,91.7
2017-08-17T00:01:03.066Z,91.6
2017-08-17T00:01:06.527Z,91.5
2017-08-17T00:01:10.078Z,91.5
2017-08-17T00:01:13.441Z,91.5
2017-08-17T00:01:16.446Z,91.6
2017-08-17T00:01:19.989Z,91.6
2017-08-17T00:01:23.862Z,91.6
2017-08-17T00:01:27.707Z,91.6
2017-08-17T00:01:30.722Z,91.5
2017-08-17T00:01:34.090Z,91.5
2017-08-17T00:01:37.449Z,91.5
2017-08-17T00:01:40.850Z,91.5
2017-08-17T00:01:43.897Z,91.5
2017-08-17T00:01:47.287Z,91.5
2017-08-17T00:01:50.701Z,91.4
2017-08-17T00:01:54.067Z,91.4
2017-08-17T00:01:57.442Z,91.5
2017-08-17T00:02:00.829Z,91.5
2017-08-17T00:02:04.249Z,91.5
2017-08-17T00:02:07.610Z,91.5
2017-08-17T00:02:11.153Z,91.5
2017-08-17T00:02:14.592Z,91.4
2017-08-17T00:02:17.945Z,91.5
2017-08-17T00:02:21.321Z,91.5
2017-08-17T00:02:25.029Z,91.5
2017-08-17T00:02:28.420Z,91.5
2017-08-17T00:02:31.782Z,91.6
2017-08-17T00:02:35.248Z,91.6
2017-08-17T00:02:38.609Z,91.6
2017-08-17T00:02:42.061Z,91.6
2017-08-17T00:02:46.549Z,91.5
2017-08-17T00:02:50.012Z,91.6
2017-08-17T00:02:53.369Z,91.6
2017-08-17T00:02:56.381Z,91.6
2017-08-17T00:02:59.962Z,91.6
2017-08-17T00:03:03.368Z,91.5
2017-08-17T00:03:07.213Z,91.5
2017-08-17T00:03:10.620Z,91.5
2017-08-17T00:03:13.994Z,91.4
2017-08-17T00:03:17.358Z,91.5
2017-08-17T00:03:20.788Z,91.6
2017-08-17T00:03:24.152Z,91.5
2017-08-17T00:03:27.549Z,91.5
2017-08-17T00:03:30.941Z,91.6
2017-08-17T00:03:34.351Z,91.6
2017-08-17T00:03:37.720Z,91.6
2017-08-17T00:03:41.148Z,91.5
2017-08-17T00:03:44.155Z,91.5
2017-08-17T00:03:47.555Z,91.5
2017-08-17T00:03:50.941Z,91.5
2017-08-17T00:03:54.307Z,91.6
2017-08-17T00:03:57.668Z,91.5
2017-08-17T00:04:01.062Z,91.5
2017-08-17T00:04:04.943Z,91.5
2017-08-17T00:04:08.298Z,91.5
2017-08-17T00:04:11.667Z,91.5
2017-08-17T00:04:15.170Z,91.5
2017-08-17T00:04:18.209Z,91.5
2017-08-17T00:04:21.604Z,91.5
2017-08-17T00:04:25.328Z,91.5
2017-08-17T00:04:28.714Z,91.4
2017-08-17T00:04:32.141Z,91.5
2017-08-17T00:04:35.647Z,91.5
2017-08-17T00:04:39.004Z,91.5
2017-08-17T00:04:42.480Z,91.5
2017-08-17T00:04:46.434Z,91.5
2017-08-17T00:04:49.891Z,91.5
2017-08-17T00:04:53.248Z,91.5
2017-08-17T00:04:56.607Z,91.5
2017-08-17T00:05:00.185Z,91.5
2017-08-17T00:05:03.564Z,91.5
2017-08-17T00:05:07.027Z,91.5
2017-08-17T00:05:10.474Z,91.5
2017-08-17T00:05:13.849Z,91.5
2017-08-17T00:05:17.347Z,91.5
2017-08-17T00:05:20.833Z,91.6
2017-08-17T00:05:24.209Z,91.6
2017-08-17T00:05:27.608Z,91.6
2017-08-17T00:05:30.998Z,91.5
2017-08-17T00:05:34.012Z,91.6
2017-08-17T00:05:37.392Z,91.6
2017-08-17T00:05:40.809Z,91.6
2017-08-17T00:05:43.818Z,91.6
2017-08-17T00:05:47.247Z,91.6
2017-08-17T00:05:50.769Z,91.6
2017-08-17T00:05:54.130Z,91.6
2017-08-17T00:05:57.548Z,91.6
2017-08-17T00:06:00.989Z,91.6
2017-08-17T00:06:04.349Z,91.6
2017-08-17T00:06:07.730Z,91.6
2017-08-17T00:06:10.800Z,91.5
2017-08-17T00:06:13.829Z,91.5
2017-08-17T00:06:17.245Z,91.5
2017-08-17T00:06:20.761Z,91.5
2017-08-17T00:06:24.172Z,91.5
2017-08-17T00:06:27.234Z,91.5
2017-08-17T00:06:30.753Z,91.5
2017-08-17T00:06:34.110Z,91.6
2017-08-17T00:06:37.509Z,91.6
2017-08-17T00:06:40.945Z,91.6
2017-08-17T00:06:44.308Z,91.6
2017-08-17T00:06:47.685Z,91.6
2017-08-17T00:06:51.050Z,91.6
2017-08-17T00:06:54.088Z,91.6
2017-08-17T00:06:57.457Z,91.6
2017-08-17T00:07:01.128Z,91.6
2017-08-17T00:07:04.492Z,91.6
2017-08-17T00:07:07.859Z,91.6
2017-08-17T00:07:11.242Z,91.6
2017-08-17T00:07:14.633Z,91.6
2017-08-17T00:07:18.017Z,91.6
2017-08-17T00:07:21.413Z,91.6
2017-08-17T00:07:24.843Z,91.6
2017-08-17T00:07:28.222Z,91.6
2017-08-17T00:07:31.246Z,91.6
2017-08-17T00:07:34.627Z,91.6
2017-08-17T00:07:38.018Z,91.6
2017-08-17T00:07:41.428Z,91.7
2017-08-17T00:07:44.435Z,91.7
2017-08-17T00:07:47.805Z,91.6
2017-08-17T00:08:09.026Z,91.6
2017-08-17T00:08:12.508Z,91.6
2017-08-17T00:08:15.889Z,91.6
2017-08-17T00:08:19.255Z,91.6
2017-08-17T00:08:22.628Z,91.6
2017-08-17T00:08:25.996Z,91.6
2017-08-17T00:08:29.361Z,91.7
2017-08-17T00:08:32.838Z,91.6
2017-08-17T00:08:36.229Z,91.7
2017-08-17T00:08:39.589Z,91.7
2017-08-17T00:08:42.968Z,91.7
2017-08-17T00:08:46.331Z,91.7
2017-08-17T00:08:49.721Z,91.7
2017-08-17T00:08:53.101Z,91.7
2017-08-17T00:08:56.661Z,91.6
2017-08-17T00:09:00.312Z,91.7
2017-08-17T00:09:03.670Z,91.6
2017-08-17T00:09:07.025Z,91.7
2017-08-17T00:09:10.526Z,91.7
2017-08-17T00:09:13.891Z,91.8
2017-08-17T00:09:17.251Z,91.7
2017-08-17T00:09:20.921Z,91.7
2017-08-17T00:09:24.280Z,91.7
2017-08-17T00:09:27.641Z,91.6
2017-08-17T00:09:30.732Z,91.6
2017-08-17T00:09:34.085Z,91.7
2017-08-17T00:09:37.120Z,91.7
2017-08-17T00:09:40.780Z,91.7
2017-08-17T00:09:44.161Z,91.7
2017-08-17T00:09:47.697Z,91.6
2017-08-17T00:09:50.428Z,91.6
2017-08-17T00:09:53.808Z,91.7
2017-08-17T00:09:57.172Z,91.6
2017-08-17T00:10:00.782Z,91.6
2017-08-17T00:10:04.191Z,91.7
2017-08-17T00:10:07.630Z,91.7
2017-08-17T00:10:11.037Z,91.6
2017-08-17T00:10:14.394Z,91.7
2017-08-17T00:10:17.988Z,91.7
2017-08-17T00:10:21.400Z,91.7
2017-08-17T00:10:24.781Z,91.7
2017-08-17T00:10:28.161Z,91.7
2017-08-17T00:10:31.549Z,91.7
2017-08-17T00:10:35.027Z,91.7
2017-08-17T00:10:38.408Z,91.7
2017-08-17T00:10:42.081Z,91.8
2017-08-17T00:10:45.609Z,91.8
2017-08-17T00:10:48.974Z,91.8
2017-08-17T00:10:52.348Z,91.8
2017-08-17T00:10:55.742Z,91.8
2017-08-17T00:10:59.194Z,91.9
2017-08-17T00:11:02.681Z,91.9
2017-08-17T00:11:06.084Z,91.9
2017-08-17T00:11:09.440Z,91.9
2017-08-17T00:11:12.801Z,91.8
2017-08-17T00:11:15.872Z,91.8
2017-08-17T00:11:19.229Z,91.8
2017-08-17T00:11:22.719Z,91.8
2017-08-17T00:11:26.101Z,91.9
2017-08-17T00:11:29.464Z,91.9
2017-08-17T00:11:32.821Z,91.9
2017-08-17T00:11:35.914Z,91.9
2017-08-17T00:11:39.280Z,91.9
2017-08-17T00:11:42.741Z,91.9
2017-08-17T00:11:46.103Z,91.8
2017-08-17T00:11:49.464Z,91.8
2017-08-17T00:11:52.838Z,91.8
2017-08-17T00:11:56.205Z,91.8
2017-08-17T00:11:59.323Z,91.8
2017-08-17T00:12:02.775Z,91.8
2017-08-17T00:12:06.165Z,91.8
2017-08-17T00:12:09.551Z,91.9
2017-08-17T00:12:12.595Z,91.9
2017-08-17T00:12:15.624Z,91.9
2017-08-17T00:12:18.983Z,91.9
2017-08-17T00:12:22.374Z,91.9
2017-08-17T00:12:25.742Z,91.9
2017-08-17T00:12:28.780Z,91.9
2017-08-17T00:12:32.141Z,91.9
2017-08-17T00:12:35.497Z,91.9
2017-08-17T00:12:38.861Z,91.9
2017-08-17T00:12:42.349Z,91.9
2017-08-17T00:12:45.714Z,91.9
2017-08-17T00:12:49.089Z,91.9
2017-08-17T00:12:52.471Z,91.9
2017-08-17T00:12:55.517Z,91.8
2017-08-17T00:12:58.907Z,91.8
2017-08-17T00:13:01.920Z,91.8
2017-08-17T00:13:05.295Z,91.9
2017-08-17T00:13:08.689Z,91.9
2017-08-17T00:13:11.701Z,91.8
2017-08-17T00:13:14.711Z,91.8
2017-08-17T00:13:18.132Z,91.8
2017-08-17T00:13:21.491Z,91.8
2017-08-17T00:13:24.854Z,91.8
2017-08-17T00:13:27.861Z,91.8
2017-08-17T00:13:31.222Z,91.8
2017-08-17T00:13:34.604Z,91.8
2017-08-17T00:13:37.922Z,91.8
2017-08-17T00:13:41.283Z,91.8
2017-08-17T00:13:43.954Z,91.8
2017-08-17T00:13:47.314Z,91.8
2017-08-17T00:13:51.225Z,91.9
2017-08-17T00:13:54.602Z,91.9
2017-08-17T00:13:57.652Z,91.9
2017-08-17T00:14:01.028Z,91.8
2017-08-17T00:14:04.087Z,91.9
2017-08-17T00:14:07.717Z,91.9
2017-08-17T00:14:11.095Z,91.9
2017-08-17T00:14:14.455Z,91.9
2017-08-17T00:14:17.917Z,91.9
2017-08-17T00:14:21.291Z,92
2017-08-17T00:14:24.653Z,92
2017-08-17T00:14:27.668Z,92
2017-08-17T00:14:30.845Z,92
2017-08-17T00:14:33.861Z,92
2017-08-17T00:14:36.868Z,92
2017-08-17T00:14:39.897Z,92
2017-08-17T00:14:42.968Z,92
2017-08-17T00:14:46.327Z,91.9
2017-08-17T00:14:49.050Z,91.9
2017-08-17T00:14:52.460Z,91.9
2017-08-17T00:14:55.475Z,91.9
2017-08-17T00:14:58.849Z,92
2017-08-17T00:15:02.210Z,92
2017-08-17T00:15:05.247Z,91.9
2017-08-17T00:15:08.629Z,91.9
2017-08-17T00:15:11.636Z,92
2017-08-17T00:15:14.647Z,92
2017-08-17T00:15:17.661Z,92
2017-08-17T00:15:21.019Z,92
2017-08-17T00:15:24.061Z,92
2017-08-17T00:15:27.429Z,92
2017-08-17T00:15:31.192Z,92
2017-08-17T00:15:34.567Z,92
2017-08-17T00:15:37.947Z,91.9
2017-08-17T00:15:40.949Z,91.9
2017-08-17T00:15:43.627Z,91.9
2017-08-17T00:15:46.990Z,92
2017-08-17T00:15:50.376Z,92
2017-08-17T00:15:53.088Z,92
2017-08-17T00:15:56.452Z,92
2017-08-17T00:15:59.824Z,92
2017-08-17T00:16:03.190Z,92
2017-08-17T00:16:06.554Z,92.1
2017-08-17T00:16:09.567Z,92.1
2017-08-17T00:16:12.969Z,92.1
2017-08-17T00:16:16.332Z,92
2017-08-17T00:16:19.721Z,92.2
2017-08-17T00:16:23.101Z,92.2
2017-08-17T00:16:26.461Z,92.2
2017-08-17T00:16:29.464Z,92.1
2017-08-17T00:16:32.509Z,92.1
2017-08-17T00:16:35.870Z,92
2017-08-17T00:16:39.228Z,92.1
2017-08-17T00:16:42.244Z,92.1
2017-08-17T00:16:45.277Z,92.1
2017-08-17T00:16:48.333Z,92.1
2017-08-17T00:16:51.349Z,92.1
2017-08-17T00:16:54.714Z,92
2017-08-17T00:16:58.111Z,92.1
2017-08-17T00:17:01.474Z,92.1
2017-08-17T00:17:04.839Z,92.1
2017-08-17T00:17:08.256Z,92
2017-08-17T00:17:11.271Z,92
2017-08-17T00:17:14.635Z,92
2017-08-17T00:17:17.672Z,92.1
2017-08-17T00:17:21.048Z,92.1
2017-08-17T00:17:24.408Z,92
2017-08-17T00:17:27.417Z,92.1
2017-08-17T00:17:30.809Z,92
2017-08-17T00:17:33.821Z,92
2017-08-17T00:17:37.189Z,92
2017-08-17T00:17:40.560Z,92
2017-08-17T00:17:43.604Z,92
2017-08-17T00:17:46.965Z,92
2017-08-17T00:17:49.990Z,92.1
2017-08-17T00:17:53.054Z,92.1
2017-08-17T00:17:56.099Z,92.1
2017-08-17T00:17:59.192Z,92.1
2017-08-17T00:18:02.591Z,92
2017-08-17T00:18:05.615Z,92
2017-08-17T00:18:09.005Z,92
2017-08-17T00:18:12.384Z,92
2017-08-17T00:18:15.759Z,92
2017-08-17T00:18:19.187Z,92
2017-08-17T00:18:22.197Z,91.9
2017-08-17T00:18:25.560Z,92
2017-08-17T00:18:28.625Z,92
2017-08-17T00:18:31.680Z,92
2017-08-17T00:18:35.046Z,91.9
2017-08-17T00:18:38.157Z,91.9
2017-08-17T00:18:41.164Z,91.9
2017-08-17T00:18:44.528Z,92
2017-08-17T00:18:47.890Z,92
2017-08-17T00:18:51.248Z,92
2017-08-17T00:18:54.281Z,92.1
2017-08-17T00:18:57.289Z,92.1
2017-08-17T00:19:00.665Z,92.1
2017-08-17T00:19:03.701Z,92.1
2017-08-17T00:19:07.064Z,92.2
2017-08-17T00:19:10.074Z,92.1
2017-08-17T00:19:13.108Z,92.1
2017-08-17T00:19:16.471Z,92.1
2017-08-17T00:19:19.835Z,92.1
2017-08-17T00:19:23.200Z,92.1
2017-08-17T00:19:26.569Z,92
2017-08-17T00:19:29.952Z,92
2017-08-17T00:19:33.341Z,92
2017-08-17T00:19:36.720Z,92
2017-08-17T00:19:39.744Z,92
2017-08-17T00:19:43.102Z,92
2017-08-17T00:19:46.469Z,92
2017-08-17T00:19:49.882Z,92
2017-08-17T00:19:53.259Z,92
2017-08-17T00:19:56.620Z,92.1
2017-08-17T00:19:59.982Z,92.1
2017-08-17T00:20:03.341Z,92.1
2017-08-17T00:20:06.701Z,92.1
2017-08-17T00:20:09.752Z,92.1
2017-08-17T00:20:13.140Z,92.1
2017-08-17T00:20:16.146Z,92.1
2017-08-17T00:20:18.825Z,92.2
2017-08-17T00:20:21.841Z,92.1
2017-08-17T00:20:25.201Z,92.1
2017-08-17T00:20:28.559Z,92
2017-08-17T00:20:31.922Z,92
2017-08-17T00:20:35.292Z,92.1
2017-08-17T00:20:38.300Z,92.1
2017-08-17T00:20:40.981Z,92.1
2017-08-17T00:20:44.348Z,92.1
2017-08-17T00:20:47.356Z,92.1
2017-08-17T00:20:50.717Z,92.1
2017-08-17T00:20:53.729Z,92.1
2017-08-17T00:20:57.091Z,92.1
2017-08-17T00:21:00.097Z,92.2
2017-08-17T00:21:03.116Z,92.2
2017-08-17T00:21:06.488Z,92.2
2017-08-17T00:21:09.889Z,92.2
2017-08-17T00:21:13.265Z,92.3
2017-08-17T00:21:15.941Z,92.3
2017-08-17T00:21:18.951Z,92.2
2017-08-17T00:21:22.314Z,92.2
2017-08-17T00:21:25.348Z,92.2
2017-08-17T00:21:28.372Z,92.2
2017-08-17T00:21:31.380Z,92.3
2017-08-17T00:21:34.747Z,92.3
2017-08-17T00:21:38.107Z,92.3
2017-08-17T00:21:41.134Z,92.2
2017-08-17T00:21:44.161Z,92.2
2017-08-17T00:21:47.170Z,92.2
2017-08-17T00:21:50.571Z,92.2
2017-08-17T00:21:53.930Z,92.2
2017-08-17T00:21:56.606Z,92.2
2017-08-17T00:21:59.614Z,92.2
2017-08-17T00:22:03.012Z,92.2
2017-08-17T00:22:06.370Z,92.2
2017-08-17T00:22:09.740Z,92.2
2017-08-17T00:22:13.105Z,92.2
2017-08-17T00:22:16.464Z,92.2
2017-08-17T00:22:19.829Z,92.2
2017-08-17T00:22:23.191Z,92.2
2017-08-17T00:22:26.549Z,92.2
2017-08-17T00:22:29.582Z,92.2
2017-08-17T00:22:32.589Z,92.2
2017-08-17T00:22:35.949Z,92.2
2017-08-17T00:22:39.307Z,92.2
2017-08-17T00:22:42.666Z,92.2
2017-08-17T00:22:45.692Z,92.2
2017-08-17T00:22:49.053Z,92.3
2017-08-17T00:22:52.416Z,92.3
2017-08-17T00:22:55.447Z,92.3
2017-08-17T00:22:58.456Z,92.2
2017-08-17T00:23:01.816Z,92.2
2017-08-17T00:23:04.830Z,92.2
2017-08-17T00:23:08.187Z,92.2
2017-08-17T00:23:11.220Z,92.1
2017-08-17T00:23:13.891Z,92.1
2017-08-17T00:23:17.262Z,92.2
2017-08-17T00:23:20.627Z,92.2
2017-08-17T00:23:23.989Z,92.1
2017-08-17T00:23:26.995Z,92.1
2017-08-17T00:23:30.361Z,92.1
2017-08-17T00:23:33.731Z,92.1
2017-08-17T00:23:37.091Z,92.2
2017-08-17T00:23:40.118Z,92.1
2017-08-17T00:23:43.130Z,92.1
2017-08-17T00:23:46.141Z,92.1
2017-08-17T00:23:49.152Z,92.2
2017-08-17T00:23:52.167Z,92.2
2017-08-17T00:23:55.530Z,92.2
2017-08-17T00:23:58.906Z,92.2
2017-08-17T00:24:02.280Z,92.2
2017-08-17T00:24:05.289Z,92.1
2017-08-17T00:24:08.301Z,92.1
2017-08-17T00:24:10.986Z,92.1
2017-08-17T00:24:14.350Z,92.1
2017-08-17T00:24:17.025Z,92.1
2017-08-17T00:24:20.061Z,92.1
2017-08-17T00:24:23.070Z,92.1
2017-08-17T00:24:25.749Z,92.1
2017-08-17T00:24:29.110Z,92.2
2017-08-17T00:24:32.477Z,92.2
2017-08-17T00:24:35.843Z,92.1
2017-08-17T00:24:39.204Z,92.1
2017-08-17T00:24:42.216Z,92.1
2017-08-17T00:24:45.221Z,92.2
2017-08-17T00:24:48.591Z,92.1
2017-08-17T00:24:52.002Z,92.2
2017-08-17T00:24:54.675Z,92.2
2017-08-17T00:24:58.034Z,92.2
2017-08-17T00:25:01.411Z,92.2
2017-08-17T00:25:04.849Z,92.3
2017-08-17T00:25:07.858Z,92.3
2017-08-17T00:25:10.881Z,92.3
2017-08-17T00:25:14.248Z,92.3
2017-08-17T00:25:17.613Z,92.2
2017-08-17T00:25:20.981Z,92.2
2017-08-17T00:25:23.995Z,92.2
2017-08-17T00:25:27.362Z,92.2
2017-08-17T00:25:30.726Z,92.3
2017-08-17T00:25:33.741Z,92.3
2017-08-17T00:25:37.106Z,92.2
2017-08-17T00:25:40.472Z,92.3
2017-08-17T00:25:43.502Z,92.3
2017-08-17T00:25:46.866Z,92.3
2017-08-17T00:25:50.226Z,92.3
2017-08-17T00:25:53.266Z,92.3
2017-08-17T00:25:55.941Z,92.3
2017-08-17T00:25:58.611Z,92.3
2017-08-17T00:26:01.971Z,92.3
2017-08-17T00:26:05.328Z,92.4
2017-08-17T00:26:08.689Z,92.4
2017-08-17T00:26:11.700Z,92.4
2017-08-17T00:26:14.740Z,92.4
2017-08-17T00:26:17.750Z,92.4
2017-08-17T00:26:20.760Z,92.5
2017-08-17T00:26:24.121Z,92.4
2017-08-17T00:26:27.129Z,92.4
2017-08-17T00:26:30.493Z,92.4
2017-08-17T00:26:33.850Z,92.4
2017-08-17T00:26:37.214Z,92.4
2017-08-17T00:26:40.221Z,92.4
2017-08-17T00:26:43.585Z,92.4
2017-08-17T00:26:46.968Z,92.4
2017-08-17T00:26:50.330Z,92.4
2017-08-17T00:26:53.344Z,92.4
2017-08-17T00:26:56.015Z,92.5
2017-08-17T00:26:59.030Z,92.5
2017-08-17T00:27:02.042Z,92.4
2017-08-17T00:27:05.052Z,92.4
2017-08-17T00:27:08.411Z,92.4
2017-08-17T00:27:11.774Z,92.4
2017-08-17T00:27:15.134Z,92.4
2017-08-17T00:27:18.503Z,92.3
2017-08-17T00:27:21.512Z,92.3
2017-08-17T00:27:24.522Z,92.3
2017-08-17T00:27:27.529Z,92.4
2017-08-17T00:27:30.902Z,92.3
2017-08-17T00:27:34.265Z,92.4
2017-08-17T00:27:37.299Z,92.4
2017-08-17T00:27:40.305Z,92.4
2017-08-17T00:27:43.342Z,92.4
2017-08-17T00:27:46.708Z,92.4
2017-08-17T00:27:50.074Z,92.4
2017-08-17T00:27:53.435Z,92.4
2017-08-17T00:27:56.446Z,92.4
2017-08-17T00:27:59.471Z,92.3
2017-08-17T00:28:02.837Z,92.3
2017-08-17T00:28:06.207Z,92.3
2017-08-17T00:28:09.252Z,92.4
2017-08-17T00:28:12.621Z,92.3
2017-08-17T00:28:15.628Z,92.3
2017-08-17T00:28:18.652Z,92.3
2017-08-17T00:28:22.025Z,92.3
2017-08-17T00:28:25.388Z,92.3
2017-08-17T00:28:28.401Z,92.3
2017-08-17T00:28:31.761Z,92.4
2017-08-17T00:28:34.789Z,92.4
2017-08-17T00:28:37.795Z,92.4
2017-08-17T00:28:41.156Z,92.5
2017-08-17T00:28:44.171Z,92.5
2017-08-17T00:28:47.539Z,92.5
2017-08-17T00:28:50.897Z,92.5
2017-08-17T00:28:54.270Z,92.5
2017-08-17T00:28:57.632Z,92.5
2017-08-17T00:29:00.661Z,92.5
2017-08-17T00:29:03.670Z,92.5
2017-08-17T00:29:07.031Z,92.5
2017-08-17T00:29:10.407Z,92.5
2017-08-17T00:29:13.420Z,92.5
2017-08-17T00:29:16.429Z,92.5
2017-08-17T00:29:19.790Z,92.5
2017-08-17T00:29:22.795Z,92.5
2017-08-17T00:29:26.165Z,92.5
2017-08-17T00:29:29.178Z,92.5
2017-08-17T00:29:32.538Z,92.5
2017-08-17T00:29:35.899Z,92.5
2017-08-17T00:29:39.264Z,92.5
2017-08-17T00:29:42.271Z,92.5
2017-08-17T00:29:45.647Z,92.5
2017-08-17T00:29:49.024Z,92.5
2017-08-17T00:29:52.447Z,92.5
2017-08-17T00:29:55.809Z,92.5
2017-08-17T00:29:59.176Z,92.5
2017-08-17T00:30:02.546Z,92.5
2017-08-17T00:30:05.908Z,92.5
2017-08-17T00:30:08.964Z,92.5
2017-08-17T00:30:12.329Z,92.5
2017-08-17T00:30:15.694Z,92.5
2017-08-17T00:30:18.729Z,92.5
2017-08-17T00:30:22.103Z,92.5
2017-08-17T00:30:25.471Z,92.6
2017-08-17T00:30:28.840Z,92.5
2017-08-17T00:30:31.509Z,92.5
2017-08-17T00:30:34.874Z,92.5
2017-08-17T00:30:38.241Z,92.6
2017-08-17T00:30:41.601Z,92.5
2017-08-17T00:30:44.966Z,92.6
2017-08-17T00:30:48.333Z,92.6
2017-08-17T00:30:51.696Z,92.6
2017-08-17T00:30:55.070Z,92.6
2017-08-17T00:30:58.435Z,92.6
2017-08-17T00:31:01.797Z,92.6
2017-08-17T00:31:05.160Z,92.6
2017-08-17T00:31:08.168Z,92.6
2017-08-17T00:31:11.537Z,92.6
2017-08-17T00:31:14.900Z,92.5
2017-08-17T00:31:17.969Z,92.5
2017-08-17T00:31:21.332Z,92.5
2017-08-17T00:31:24.002Z,92.6
2017-08-17T00:31:27.012Z,92.6
2017-08-17T00:31:29.722Z,92.6
2017-08-17T00:31:47.622Z,92.6
2017-08-17T00:31:50.661Z,92.7
2017-08-17T00:31:54.027Z,92.6
2017-08-17T00:31:57.392Z,92.7
2017-08-17T00:32:00.432Z,92.6
2017-08-17T00:32:03.802Z,92.7
2017-08-17T00:32:06.810Z,92.7
2017-08-17T00:32:09.821Z,92.7
2017-08-17T00:32:13.185Z,92.7
2017-08-17T00:32:16.195Z,92.7
2017-08-17T00:32:19.552Z,92.7
2017-08-17T00:32:22.914Z,92.7
2017-08-17T00:32:25.918Z,92.7
2017-08-17T00:32:29.285Z,92.7
2017-08-17T00:32:32.650Z,92.7
2017-08-17T00:32:36.016Z,92.7
2017-08-17T00:32:39.382Z,92.7
2017-08-17T00:32:42.067Z,92.7
2017-08-17T00:32:45.427Z,92.8
2017-08-17T00:32:48.453Z,92.8
2017-08-17T00:32:51.486Z,92.8
2017-08-17T00:32:54.494Z,92.8
2017-08-17T00:32:57.857Z,92.7
2017-08-17T00:33:01.225Z,92.7
2017-08-17T00:33:04.584Z,92.6
2017-08-17T00:33:07.620Z,92.6
2017-08-17T00:33:10.979Z,92.6
2017-08-17T00:33:14.341Z,92.5
2017-08-17T00:33:17.010Z,92.6
2017-08-17T00:33:20.381Z,92.6
2017-08-17T00:33:23.408Z,92.7
2017-08-17T00:33:26.771Z,92.7
2017-08-17T00:33:30.130Z,92.7
2017-08-17T00:33:33.495Z,92.7
2017-08-17T00:33:36.867Z,92.6
2017-08-17T00:33:39.901Z,92.6
2017-08-17T00:33:43.263Z,92.6
2017-08-17T00:33:46.632Z,92.6
2017-08-17T00:33:49.644Z,92.6
2017-08-17T00:33:53.010Z,92.6
2017-08-17T00:33:55.685Z,92.6
2017-08-17T00:33:58.694Z,92.6
2017-08-17T00:34:01.710Z,92.6
2017-08-17T00:34:05.071Z,92.6
2017-08-17T00:34:08.108Z,92.6
2017-08-17T00:34:11.469Z,92.6
2017-08-17T00:34:14.831Z,92.6
2017-08-17T00:34:18.194Z,92.6
2017-08-17T00:34:21.558Z,92.6
2017-08-17T00:34:24.565Z,92.6
2017-08-17T00:34:27.572Z,92.6
2017-08-17T00:34:30.941Z,92.6
2017-08-17T00:34:33.952Z,92.7
2017-08-17T00:34:37.309Z,92.6
2017-08-17T00:34:40.342Z,92.6
2017-08-17T00:34:43.350Z,92.6
2017-08-17T00:34:46.721Z,92.6
2017-08-17T00:34:50.088Z,92.7
2017-08-17T00:34:53.448Z,92.6
2017-08-17T00:34:56.471Z,92.7
2017-08-17T00:34:59.500Z,92.7
2017-08-17T00:35:02.892Z,92.7
2017-08-17T00:35:06.269Z,92.7
2017-08-17T00:35:09.632Z,92.7
2017-08-17T00:35:12.637Z,92.7
2017-08-17T00:35:15.996Z,92.8
2017-08-17T00:35:19.033Z,92.8
2017-08-17T00:35:22.401Z,92.8
2017-08-17T00:35:25.440Z,92.8
2017-08-17T00:35:28.799Z,92.7
2017-08-17T00:35:32.162Z,92.7
2017-08-17T00:35:35.528Z,92.7
2017-08-17T00:35:38.891Z,92.7
2017-08-17T00:35:42.251Z,92.7
2017-08-17T00:35:45.281Z,92.7
2017-08-17T00:35:48.643Z,92.8
2017-08-17T00:35:52.004Z,92.8
2017-08-17T00:35:55.030Z,92.7
2017-08-17T00:35:58.397Z,92.7
2017-08-17T00:36:01.757Z,92.7
2017-08-17T00:36:05.120Z,92.7
2017-08-17T00:36:08.134Z,92.7
2017-08-17T00:36:11.500Z,92.7
2017-08-17T00:36:14.867Z,92.7
2017-08-17T00:36:18.229Z,92.8
2017-08-17T00:36:21.240Z,92.8
2017-08-17T00:36:24.248Z,92.8
2017-08-17T00:36:27.608Z,92.7
2017-08-17T00:36:30.965Z,92.7
2017-08-17T00:36:34.327Z,92.7
2017-08-17T00:36:37.352Z,92.7
2017-08-17T00:36:40.381Z,92.7
2017-08-17T00:36:43.409Z,92.7
2017-08-17T00:36:46.779Z,92.7
2017-08-17T00:36:50.148Z,92.7
2017-08-17T00:36:53.529Z,92.7
2017-08-17T00:36:56.541Z,92.7
2017-08-17T00:36:59.904Z,92.7
2017-08-17T00:37:02.651Z,92.7
2017-08-17T00:37:06.025Z,92.7
2017-08-17T00:37:09.052Z,92.7
2017-08-17T00:37:12.062Z,92.7
2017-08-17T00:37:15.075Z,92.7
2017-08-17T00:37:18.088Z,92.7
2017-08-17T00:37:21.097Z,92.7
2017-08-17T00:37:24.467Z,92.7
2017-08-17T00:37:27.828Z,92.7
2017-08-17T00:37:31.190Z,92.7
2017-08-17T00:37:34.549Z,92.7
2017-08-17T00:37:37.913Z,92.7
2017-08-17T00:37:41.282Z,92.7
2017-08-17T00:37:44.647Z,92.7
2017-08-17T00:37:48.024Z,92.7
2017-08-17T00:37:51.389Z,92.7
2017-08-17T00:37:54.404Z,92.7
2017-08-17T00:37:57.414Z,92.7
2017-08-17T00:38:00.771Z,92.7
2017-08-17T00:38:03.807Z,92.7
2017-08-17T00:38:07.171Z,92.7
2017-08-17T00:38:10.531Z,92.7
2017-08-17T00:38:13.560Z,92.7
2017-08-17T00:38:16.922Z,92.7
2017-08-17T00:38:19.949Z,92.7
2017-08-17T00:38:23.311Z,92.7
2017-08-17T00:38:26.321Z,92.7
2017-08-17T00:38:29.686Z,92.8
2017-08-17T00:38:32.718Z,92.8
2017-08-17T00:38:36.084Z,92.8
2017-08-17T00:38:39.447Z,92.8
2017-08-17T00:38:42.809Z,92.8
2017-08-17T00:38:45.831Z,92.8
2017-08-17T00:38:49.193Z,92.8
2017-08-17T00:38:52.227Z,92.8
2017-08-17T00:38:55.589Z,92.8
2017-08-17T00:38:58.598Z,92.8
2017-08-17T00:39:01.964Z,92.8
2017-08-17T00:39:05.341Z,92.8
2017-08-17T00:39:08.702Z,92.9
2017-08-17T00:39:12.065Z,92.9
2017-08-17T00:39:15.429Z,92.8
2017-08-17T00:39:18.439Z,92.8
2017-08-17T00:39:21.808Z,92.8
2017-08-17T00:39:25.171Z,92.9
2017-08-17T00:39:28.207Z,92.8
2017-08-17T00:39:31.567Z,92.9
2017-08-17T00:39:34.607Z,92.9
2017-08-17T00:39:37.966Z,92.9
2017-08-17T00:39:41.348Z,92.9
2017-08-17T00:39:44.799Z,92.9
2017-08-17T00:39:48.189Z,92.9
2017-08-17T00:39:51.556Z,92.8
2017-08-17T00:39:54.981Z,92.8
2017-08-17T00:39:58.346Z,92.8
2017-08-17T00:40:01.707Z,92.8
2017-08-17T00:40:04.731Z,92.8
2017-08-17T00:40:07.793Z,92.9
2017-08-17T00:40:10.802Z,92.9
2017-08-17T00:40:14.158Z,92.9
2017-08-17T00:40:17.522Z,92.9
2017-08-17T00:40:20.887Z,92.9
2017-08-17T00:40:24.252Z,92.9
2017-08-17T00:40:27.630Z,92.9
2017-08-17T00:40:31.001Z,93
2017-08-17T00:40:34.364Z,92.9
2017-08-17T00:40:37.730Z,92.9
2017-08-17T00:40:40.746Z,92.9
2017-08-17T00:40:44.108Z,92.9
2017-08-17T00:40:47.486Z,92.9
2017-08-17T00:40:50.845Z,92.9
2017-08-17T00:40:54.213Z,92.9
2017-08-17T00:40:57.576Z,92.9
2017-08-17T00:41:00.935Z,92.9
2017-08-17T00:41:03.613Z,92.9
2017-08-17T00:41:06.974Z,93
2017-08-17T00:41:10.340Z,93
2017-08-17T00:41:13.379Z,93
2017-08-17T00:41:16.742Z,93
2017-08-17T00:41:20.110Z,92.9
2017-08-17T00:41:23.471Z,93
2017-08-17T00:41:26.504Z,93
2017-08-17T00:41:29.867Z,93
2017-08-17T00:41:32.876Z,93
2017-08-17T00:41:36.247Z,93
2017-08-17T00:41:39.610Z,92.9
2017-08-17T00:41:42.973Z,92.9
2017-08-17T00:41:46.325Z,92.9
2017-08-17T00:41:49.359Z,92.9
2017-08-17T00:41:52.367Z,92.9
2017-08-17T00:41:55.407Z,92.9
2017-08-17T00:41:58.769Z,92.9
2017-08-17T00:42:01.449Z,92.9
2017-08-17T00:42:04.124Z,92.9
2017-08-17T00:42:07.151Z,92.9
2017-08-17T00:42:10.521Z,93
2017-08-17T00:42:13.884Z,93
2017-08-17T00:42:16.890Z,93
2017-08-17T00:42:20.247Z,93
2017-08-17T00:42:23.282Z,93
2017-08-17T00:42:25.956Z,93
2017-08-17T00:42:28.976Z,92.9
2017-08-17T00:42:31.986Z,92.9
2017-08-17T00:42:35.021Z,92.9
2017-08-17T00:42:38.384Z,92.9
2017-08-17T00:42:41.393Z,92.9
2017-08-17T00:42:44.768Z,92.9
2017-08-17T00:42:47.779Z,92.9
2017-08-17T00:42:51.144Z,93
2017-08-17T00:42:54.173Z,93
2017-08-17T00:42:57.200Z,93
2017-08-17T00:43:00.567Z,93
2017-08-17T00:43:03.928Z,93
2017-08-17T00:43:07.517Z,93
2017-08-17T00:43:10.887Z,93
2017-08-17T00:43:14.248Z,93
2017-08-17T00:43:18.058Z,93
2017-08-17T00:43:21.420Z,93
2017-08-17T00:43:24.780Z,93
2017-08-17T00:43:27.807Z,93
2017-08-17T00:43:31.170Z,93.1
2017-08-17T00:43:34.528Z,93
2017-08-17T00:43:37.895Z,93
2017-08-17T00:43:41.254Z,93
2017-08-17T00:43:44.260Z,93
2017-08-17T00:43:47.629Z,93
2017-08-17T00:43:50.990Z,93
2017-08-17T00:43:54.352Z,93
2017-08-17T00:43:57.383Z,93
2017-08-17T00:44:00.747Z,93
2017-08-17T00:44:04.107Z,93
2017-08-17T00:44:07.135Z,93.1
2017-08-17T00:44:10.507Z,93.1
2017-08-17T00:44:13.520Z,93.1
2017-08-17T00:44:16.885Z,93.2
2017-08-17T00:44:20.246Z,93.2
2017-08-17T00:44:23.254Z,93.1